createdAt,value
2019-04-25T00:02:51.220Z,5.82
2019-04-25T00:07:58.087Z,9.68
2019-04-25T00:13:06.166Z,8.24
2019-04-25T00:18:14.295Z,6.32
2019-04-25T00:23:22.321Z,5.28
2019-04-25T00:28:31.595Z,3.83
2019-04-25T00:33:37.930Z,3.23
2019-04-25T00:38:47.816Z,3.19
2019-04-25T00:43:53.569Z,3.73
2019-04-25T00:49:02.552Z,2.86
2019-04-25T00:54:09.109Z,3.50
2019-04-25T00:59:17.184Z,4.83
2019-04-25T01:04:26.325Z,2.96
2019-04-25T01:09:34.360Z,3.06
2019-04-25T01:14:42.488Z,2.43
2019-04-25T01:19:50.990Z,4.33
2019-04-25T01:25:00.730Z,2.99
2019-04-25T01:29:59.022Z,3.67
2019-04-25T01:35:07.481Z,3.15
2019-04-25T01:40:15.568Z,3.59
2019-04-25T01:45:23.958Z,2.25
2019-04-25T01:50:33.197Z,2.61
2019-04-25T01:55:50.931Z,1.88
2019-04-25T02:00:46.798Z,2.26
2019-04-25T02:05:55.197Z,3.09
2019-04-25T02:11:03.185Z,4.41
2019-04-25T02:16:09.842Z,4.56
2019-04-25T02:21:17.908Z,5.52
2019-04-25T02:26:25.944Z,5.60
2019-04-25T02:31:34.755Z,6.60
2019-04-25T02:36:41.383Z,6.77
2019-04-25T02:41:49.559Z,8.07
2019-04-25T02:47:00.315Z,8.29
2019-04-25T02:52:07.769Z,8.78
2019-04-25T02:57:14.460Z,9.25
2019-04-25T03:02:20.321Z,9.77
2019-04-25T03:07:28.693Z,10.01
2019-04-25T03:12:37.038Z,9.90
2019-04-25T03:17:45.387Z,10.61
2019-04-25T03:22:54.707Z,10.27
2019-04-25T03:28:04.962Z,10.60
2019-04-25T03:33:13.748Z,10.91
2019-04-25T03:38:17.869Z,10.82
2019-04-25T03:43:26.218Z,10.94
2019-04-25T03:48:36.793Z,11.81
2019-04-25T03:53:43.789Z,13.31
2019-04-25T03:58:50.778Z,18.30
2019-04-25T04:03:58.913Z,21.74
2019-04-25T04:09:07.958Z,23.42
2019-04-25T04:14:15.733Z,22.55
2019-04-25T04:19:24.005Z,22.30
2019-04-25T04:24:30.482Z,19.77
2019-04-25T04:29:38.678Z,16.56
2019-04-25T04:34:47.125Z,16.17
2019-04-25T04:39:55.421Z,13.00
2019-04-25T04:45:03.709Z,10.76
2019-04-25T04:50:13.883Z,9.51
2019-04-25T04:55:20.570Z,9.30
2019-04-25T05:00:28.938Z,7.93
2019-04-25T05:05:37.185Z,7.85
2019-04-25T05:10:45.624Z,8.72
2019-04-25T05:15:53.893Z,6.96
2019-04-25T05:21:02.334Z,7.69
2019-04-25T05:26:10.946Z,7.31
2019-04-25T05:31:19.317Z,6.48
2019-04-25T05:36:27.480Z,6.96
2019-04-25T05:41:36.157Z,6.54
2019-04-25T05:46:45.334Z,5.69
2019-04-25T05:51:53.798Z,6.26
2019-04-25T05:57:00.030Z,4.98
2019-04-25T06:02:08.665Z,4.54
2019-04-25T06:07:17.947Z,4.17
2019-04-25T06:12:24.848Z,3.83
2019-04-25T06:17:34.280Z,4.02
2019-04-25T06:22:41.178Z,2.98
2019-04-25T06:27:56.437Z,2.70
2019-04-25T06:32:58.602Z,3.54
2019-04-25T06:38:06.827Z,4.29
2019-04-25T06:43:15.942Z,4.37
2019-04-25T06:48:24.990Z,4.97
2019-04-25T06:53:34.238Z,4.71
2019-04-25T06:58:38.734Z,4.83
2019-04-25T07:03:47.717Z,4.93
2019-04-25T07:08:56.066Z,4.41
2019-04-25T07:14:04.233Z,3.87
2019-04-25T07:19:12.233Z,2.93
2019-04-25T07:24:20.238Z,2.84
2019-04-25T07:29:28.408Z,3.69
2019-04-25T07:34:36.677Z,3.50
2019-04-25T07:39:44.622Z,3.37
2019-04-25T07:44:54.565Z,2.19
2019-04-25T07:50:00.233Z,2.42
2019-04-25T07:55:08.757Z,2.03
2019-04-25T08:00:16.816Z,3.12
2019-04-25T08:05:24.897Z,2.93
2019-04-25T08:10:33.863Z,2.41
2019-04-25T08:15:40.448Z,3.10
2019-04-25T08:20:48.637Z,1.80
2019-04-25T08:25:57.033Z,1.71
2019-04-25T08:31:05.267Z,1.63
2019-04-25T08:36:13.739Z,1.32
2019-04-25T08:41:21.795Z,1.37
2019-04-25T08:46:29.940Z,1.89
2019-04-25T08:51:38.080Z,2.55
2019-04-25T08:56:48.539Z,2.91
2019-04-25T09:01:46.656Z,2.22
2019-04-25T09:06:54.861Z,1.84
2019-04-25T09:12:04.203Z,2.13
2019-04-25T09:17:10.808Z,1.91
2019-04-25T09:22:19.037Z,1.54
2019-04-25T09:27:27.427Z,3.24
2019-04-25T09:32:35.677Z,1.83
2019-04-25T09:37:44.971Z,1.84
2019-04-25T09:42:51.406Z,2.10
2019-04-25T09:47:59.758Z,2.21
2019-04-25T09:53:15.485Z,2.52
2019-04-25T09:58:15.793Z,2.68
2019-04-25T10:03:23.846Z,2.60
2019-04-25T10:08:32.089Z,2.00
2019-04-25T10:13:40.124Z,2.76
2019-04-25T10:18:48.419Z,5.69
2019-04-25T10:23:56.606Z,2.37
2019-04-25T10:29:04.732Z,2.36
2019-04-25T10:34:14.005Z,2.72
2019-04-25T10:39:20.409Z,3.25
2019-04-25T10:44:28.967Z,6.28
2019-04-25T10:49:37.038Z,2.22
2019-04-25T10:54:46.466Z,3.81
2019-04-25T11:00:00.697Z,3.05
2019-04-25T11:05:00.615Z,5.03
2019-04-25T11:10:08.855Z,2.40
2019-04-25T11:15:16.964Z,4.97
2019-04-25T11:20:25.133Z,3.97
2019-04-25T11:25:34.170Z,4.29
2019-04-25T11:30:41.870Z,3.37
2019-04-25T11:35:49.018Z,3.39
2019-04-25T11:40:56.040Z,10.46
2019-04-25T11:46:04.941Z,2.73
2019-04-25T11:51:11.566Z,3.54
2019-04-25T11:56:19.787Z,3.35
2019-04-25T12:01:28.073Z,2.58
2019-04-25T12:06:36.313Z,3.31
2019-04-25T12:11:46.711Z,5.78
2019-04-25T12:16:51.896Z,2.44
2019-04-25T12:21:58.768Z,3.22
2019-04-25T12:27:08.311Z,3.12
2019-04-25T12:32:16.809Z,6.17
2019-04-25T12:37:25.869Z,6.07
2019-04-25T12:42:34.433Z,5.44
2019-04-25T12:47:42.862Z,4.19
2019-04-25T12:52:54.670Z,2.77
2019-04-25T12:58:00.489Z,4.44
2019-04-25T13:03:09.056Z,1.77
2019-04-25T13:08:18.870Z,3.58
2019-04-25T13:13:27.698Z,3.52
2019-04-25T13:18:35.798Z,3.54
2019-04-25T13:23:44.369Z,3.47
2019-04-25T13:28:52.181Z,3.70
2019-04-25T13:34:01.663Z,5.34
2019-04-25T13:39:08.404Z,2.86
2019-04-25T13:44:16.746Z,2.60
2019-04-25T13:49:25.096Z,4.18
2019-04-25T13:54:35.054Z,3.25
2019-04-25T13:59:44.102Z,1.94
2019-04-25T14:04:49.805Z,1.94
2019-04-25T14:09:58.351Z,2.69
2019-04-25T14:15:06.971Z,3.00
2019-04-25T14:20:14.299Z,2.60
2019-04-25T14:25:22.855Z,2.97
2019-04-25T14:30:29.376Z,1.74
2019-04-25T14:35:37.841Z,2.73
2019-04-25T14:40:47.566Z,2.14
2019-04-25T14:45:56.473Z,1.95
2019-04-25T14:51:03.935Z,1.83
2019-04-25T14:56:15.195Z,2.56
2019-04-25T15:01:20.567Z,2.68
2019-04-25T15:06:29.752Z,2.03
2019-04-25T15:11:36.954Z,2.83
2019-04-25T15:16:45.490Z,2.37
2019-04-25T15:21:53.772Z,3.53
2019-04-25T15:27:02.369Z,2.70
2019-04-25T15:32:10.534Z,3.36
2019-04-25T15:37:18.809Z,2.22
2019-04-25T15:42:27.396Z,2.49
2019-04-25T15:47:36.686Z,3.17
2019-04-25T15:52:35.989Z,1.49
2019-04-25T15:57:42.645Z,2.15
2019-04-25T16:02:51.214Z,2.33
2019-04-25T16:07:59.448Z,2.78
2019-04-25T16:13:07.633Z,2.31
2019-04-25T16:18:15.858Z,1.42
2019-04-25T16:23:24.329Z,2.34
2019-04-25T16:28:32.680Z,2.58
2019-04-25T16:33:40.861Z,2.32
2019-04-25T16:38:49.193Z,2.27
2019-04-25T16:43:57.509Z,4.00
2019-04-25T16:49:05.662Z,2.03
2019-04-25T16:54:14.014Z,3.63
2019-04-25T16:59:22.138Z,2.23
2019-04-25T17:04:31.177Z,2.30
2019-04-25T17:09:38.558Z,2.20
2019-04-25T17:14:46.631Z,3.25
2019-04-25T17:19:54.946Z,1.93
2019-04-25T17:25:03.356Z,3.25
2019-04-25T17:30:11.626Z,2.43
2019-04-25T17:35:18.173Z,1.52
2019-04-25T17:40:26.283Z,1.93
2019-04-25T17:45:34.750Z,2.51
2019-04-25T17:50:41.962Z,1.72
2019-04-25T17:55:50.204Z,3.00
2019-04-25T18:00:58.302Z,2.78
2019-04-25T18:06:06.408Z,2.66
2019-04-25T18:11:14.545Z,2.58
2019-04-25T18:16:22.851Z,3.04
2019-04-25T18:21:32.059Z,3.17
2019-04-25T18:26:41.292Z,3.05
2019-04-25T18:31:48.433Z,5.43
2019-04-25T18:36:55.807Z,3.46
2019-04-25T18:42:04.413Z,2.65
2019-04-25T18:47:12.837Z,2.95
2019-04-25T18:52:21.191Z,2.69
2019-04-25T18:57:29.341Z,3.36
2019-04-25T19:02:38.553Z,3.69
2019-04-25T19:07:45.442Z,2.09
2019-04-25T19:12:55.294Z,2.84
2019-04-25T19:18:03.512Z,2.64
2019-04-25T19:23:11.625Z,3.68
2019-04-25T19:28:19.682Z,4.06
2019-04-25T19:33:35.541Z,2.73
2019-04-25T19:38:35.430Z,3.93
2019-04-25T19:43:44.565Z,4.28
2019-04-25T19:48:51.421Z,3.24
2019-04-25T19:53:59.684Z,4.27
2019-04-25T19:59:14.722Z,3.60
2019-04-25T20:04:12.821Z,2.95
2019-04-25T20:09:20.936Z,4.58
2019-04-25T20:14:29.102Z,3.40
2019-04-25T20:19:37.431Z,4.01
2019-04-25T20:24:46.294Z,3.27
2019-04-25T20:29:53.182Z,3.43
2019-04-25T20:35:01.289Z,3.94
2019-04-25T20:40:09.507Z,3.96
2019-04-25T20:45:17.893Z,4.76
2019-04-25T20:50:31.605Z,4.93
2019-04-25T20:55:30.652Z,2.70
2019-04-25T21:00:39.986Z,2.54
2019-04-25T21:05:47.071Z,2.76
2019-04-25T21:10:59.897Z,2.27
2019-04-25T21:15:58.363Z,4.32
2019-04-25T21:21:06.902Z,2.60
2019-04-25T21:26:15.179Z,2.68
2019-04-25T21:31:23.525Z,3.20
2019-04-25T21:36:31.987Z,2.79
2019-04-25T21:41:40.187Z,3.74
2019-04-25T21:46:48.724Z,3.19
2019-04-25T21:51:57.086Z,4.38
2019-04-25T21:57:05.463Z,4.75
2019-04-25T22:02:13.778Z,2.13
2019-04-25T22:07:22.163Z,2.69
2019-04-25T22:12:30.407Z,3.72
2019-04-25T22:17:38.876Z,4.15
2019-04-25T22:22:47.952Z,3.90
2019-04-25T22:27:56.562Z,3.50
2019-04-25T22:33:05.600Z,3.05
2019-04-25T22:38:13.598Z,3.09
2019-04-25T22:43:21.970Z,3.85
2019-04-25T22:48:30.351Z,3.27
2019-04-25T22:53:38.721Z,2.06
2019-04-25T22:58:47.431Z,2.16
2019-04-25T23:03:55.102Z,2.84
2019-04-25T23:09:03.922Z,2.64
2019-04-25T23:14:11.466Z,1.89
2019-04-25T23:19:19.921Z,2.39
2019-04-25T23:24:28.172Z,3.58
2019-04-25T23:29:36.704Z,2.41
2019-04-25T23:34:44.929Z,2.58
2019-04-25T23:39:53.438Z,2.20
2019-04-25T23:45:01.863Z,2.24
2019-04-25T23:50:10.930Z,1.73
2019-04-25T23:55:19.669Z,2.28
